createdAt,value
2022-11-14T00:02:05.521Z,7.00
2022-11-14T00:04:51.234Z,6.30
2022-11-14T00:07:36.951Z,10.13
2022-11-14T00:10:22.865Z,9.20
2022-11-14T00:13:08.703Z,7.32
2022-11-14T00:15:54.626Z,10.20
2022-11-14T00:18:40.397Z,8.02
2022-11-14T00:21:26.155Z,10.25
2022-11-14T00:24:12.336Z,7.68
2022-11-14T00:26:57.836Z,11.25
2022-11-14T00:29:43.525Z,9.60
2022-11-14T00:32:29.673Z,11.40
2022-11-14T00:35:15.225Z,9.88
2022-11-14T00:38:00.943Z,10.43
2022-11-14T00:40:46.660Z,9.40
2022-11-14T00:43:32.612Z,8.38
2022-11-14T00:46:18.390Z,7.28
2022-11-14T00:49:04.024Z,8.25
2022-11-14T00:51:49.900Z,7.15
2022-11-14T00:54:35.521Z,6.50
2022-11-14T00:57:21.534Z,6.38
2022-11-14T01:00:07.856Z,6.47
2022-11-14T01:02:57.018Z,8.00
2022-11-14T01:05:47.705Z,6.10
2022-11-14T01:08:33.891Z,6.63
2022-11-14T01:11:22.599Z,5.82
2022-11-14T01:14:09.323Z,6.82
2022-11-14T01:16:54.759Z,5.20
2022-11-14T01:19:41.215Z,4.85
2022-11-14T01:22:26.872Z,7.05
2022-11-14T01:25:12.544Z,7.25
2022-11-14T01:27:58.476Z,6.30
2022-11-14T01:30:44.224Z,7.78
2022-11-14T01:33:30.056Z,6.28
2022-11-14T01:36:15.759Z,8.20
2022-11-14T01:39:01.456Z,7.60
2022-11-14T01:41:47.627Z,7.03
2022-11-14T01:44:48.075Z,6.68
2022-11-14T01:47:34.103Z,5.47
2022-11-14T01:50:20.003Z,7.07
2022-11-14T01:53:05.774Z,8.68
2022-11-14T01:55:52.791Z,5.60
2022-11-14T01:58:42.063Z,5.68
2022-11-14T02:01:31.336Z,6.75
2022-11-14T02:04:34.406Z,9.75
2022-11-14T02:07:20.378Z,8.95
2022-11-14T02:10:17.781Z,6.20
2022-11-14T02:13:03.339Z,7.03
2022-11-14T02:15:49.041Z,6.55
2022-11-14T02:18:34.971Z,8.68
2022-11-14T02:21:20.710Z,6.32
2022-11-14T02:24:11.258Z,6.65
2022-11-14T02:26:56.566Z,7.47
2022-11-14T02:29:42.669Z,6.10
2022-11-14T02:32:28.468Z,9.50
2022-11-14T02:35:18.325Z,6.22
2022-11-14T02:38:04.095Z,7.40
2022-11-14T02:40:49.845Z,7.60
2022-11-14T02:43:35.595Z,7.68
2022-11-14T02:46:21.328Z,7.43
2022-11-14T02:49:07.060Z,7.03
2022-11-14T02:51:53.121Z,9.15
2022-11-14T02:54:38.492Z,8.55
2022-11-14T02:57:24.279Z,8.85
2022-11-14T03:00:14.795Z,5.95
2022-11-14T03:03:00.956Z,7.60
2022-11-14T03:05:46.846Z,7.70
2022-11-14T03:08:32.945Z,10.65
2022-11-14T03:11:18.431Z,8.18
2022-11-14T03:14:05.396Z,6.53
2022-11-14T03:16:51.129Z,7.25
2022-11-14T03:19:36.816Z,9.57
2022-11-14T03:22:22.590Z,7.88
2022-11-14T03:25:08.889Z,8.35
2022-11-14T03:27:54.233Z,8.80
2022-11-14T03:30:40.013Z,8.15
2022-11-14T03:33:25.821Z,9.27
2022-11-14T03:36:11.618Z,6.82
2022-11-14T03:38:57.479Z,11.85
2022-11-14T03:41:43.058Z,7.60
2022-11-14T03:44:28.766Z,7.43
2022-11-14T03:47:14.518Z,10.05
2022-11-14T03:50:00.254Z,9.43
2022-11-14T03:52:49.612Z,7.70
2022-11-14T03:55:35.331Z,9.10
2022-11-14T03:58:21.112Z,8.85
2022-11-14T04:01:07.135Z,10.27
2022-11-14T04:03:52.911Z,10.55
2022-11-14T04:06:39.098Z,9.07
2022-11-14T04:09:24.576Z,9.60
2022-11-14T04:12:15.527Z,8.73
2022-11-14T04:15:01.535Z,9.18
2022-11-14T04:17:47.748Z,11.60
2022-11-14T04:20:33.469Z,9.85
2022-11-14T04:23:19.809Z,9.93
2022-11-14T04:26:06.972Z,11.75
2022-11-14T04:28:52.465Z,9.50
2022-11-14T04:31:38.320Z,13.05
2022-11-14T04:34:24.058Z,14.18
2022-11-14T04:37:10.110Z,19.65
2022-11-14T04:39:58.922Z,16.05
2022-11-14T04:42:44.760Z,18.02
2022-11-14T04:45:30.474Z,19.42
2022-11-14T04:48:16.350Z,21.75
2022-11-14T04:51:01.992Z,20.27
2022-11-14T04:53:47.814Z,18.48
2022-11-14T04:56:33.756Z,17.27
2022-11-14T04:59:21.100Z,15.52
2022-11-14T05:02:07.030Z,14.93
2022-11-14T05:04:52.874Z,14.95
2022-11-14T05:07:38.537Z,16.10
2022-11-14T05:10:24.299Z,19.30
2022-11-14T05:13:10.495Z,19.98
2022-11-14T05:15:59.989Z,28.38
2022-11-14T05:18:47.188Z,38.25
2022-11-14T05:21:33.127Z,22.48
2022-11-14T05:24:20.064Z,20.38
2022-11-14T05:27:05.788Z,15.38
2022-11-14T05:29:51.497Z,16.13
2022-11-14T05:32:37.216Z,17.67
2022-11-14T05:35:23.013Z,18.23
2022-11-14T05:38:08.742Z,14.73
2022-11-14T05:40:54.558Z,13.15
2022-11-14T05:43:41.000Z,16.23
2022-11-14T05:46:26.643Z,15.43
2022-11-14T05:49:19.177Z,20.92
2022-11-14T05:52:07.022Z,22.92
2022-11-14T05:54:53.058Z,20.50
2022-11-14T05:57:38.758Z,23.15
2022-11-14T06:00:24.842Z,21.48
2022-11-14T06:03:15.105Z,19.50
2022-11-14T06:06:02.650Z,28.08
2022-11-14T06:08:48.592Z,23.50
2022-11-14T06:11:34.622Z,21.38
2022-11-14T06:14:20.033Z,24.23
2022-11-14T06:17:05.776Z,23.23
2022-11-14T06:19:51.520Z,26.85
2022-11-14T06:22:37.365Z,21.98
2022-11-14T06:25:23.263Z,23.80
2022-11-14T06:28:08.882Z,21.20
2022-11-14T06:31:00.025Z,22.77
2022-11-14T06:33:46.209Z,22.05
2022-11-14T06:36:31.981Z,17.92
2022-11-14T06:39:17.711Z,19.33
2022-11-14T06:42:03.588Z,19.17
2022-11-14T06:44:49.256Z,20.10
2022-11-14T06:47:35.049Z,20.15
2022-11-14T06:50:20.878Z,19.98
2022-11-14T06:53:06.478Z,23.48
2022-11-14T06:56:05.736Z,19.02
2022-11-14T06:58:51.392Z,19.75
2022-11-14T07:01:37.270Z,19.95
2022-11-14T07:04:23.202Z,21.38
2022-11-14T07:07:08.978Z,21.80
2022-11-14T07:09:56.733Z,20.95
2022-11-14T07:12:42.546Z,18.23
2022-11-14T07:15:28.681Z,15.60
2022-11-14T07:18:14.340Z,19.02
2022-11-14T07:21:02.526Z,19.60
2022-11-14T07:23:48.109Z,17.27
2022-11-14T07:26:33.917Z,16.10
2022-11-14T07:29:19.617Z,16.38
2022-11-14T07:32:05.887Z,16.42
2022-11-14T07:34:51.464Z,15.80
2022-11-14T07:37:37.217Z,17.17
2022-11-14T07:40:23.067Z,12.25
2022-11-14T07:43:08.732Z,14.82
2022-11-14T07:45:54.769Z,14.55
2022-11-14T07:48:40.306Z,12.38
2022-11-14T07:51:26.110Z,17.92
2022-11-14T07:54:12.284Z,11.80
2022-11-14T07:56:58.236Z,15.00
2022-11-14T07:59:44.026Z,11.10
2022-11-14T08:02:29.928Z,10.55
2022-11-14T08:05:15.716Z,8.70
2022-11-14T08:08:01.507Z,6.47
2022-11-14T08:10:47.236Z,10.77
2022-11-14T08:13:34.004Z,11.70
2022-11-14T08:16:19.830Z,13.43
2022-11-14T08:19:06.155Z,6.68
2022-11-14T08:21:52.023Z,8.05
2022-11-14T08:24:37.872Z,5.45
2022-11-14T08:27:23.774Z,6.25
2022-11-14T08:30:10.140Z,6.20
2022-11-14T08:32:56.002Z,6.70
2022-11-14T08:35:41.939Z,5.13
2022-11-14T08:38:27.953Z,7.05
2022-11-14T08:41:14.983Z,12.98
2022-11-14T08:44:00.605Z,9.38
2022-11-14T08:46:46.400Z,7.65
2022-11-14T08:49:32.058Z,8.48
2022-11-14T08:52:17.872Z,5.93
2022-11-14T08:55:03.965Z,6.88
2022-11-14T08:57:50.170Z,6.95
2022-11-14T09:00:36.107Z,10.85
2022-11-14T09:03:21.765Z,9.43
2022-11-14T09:06:07.778Z,11.52
2022-11-14T09:08:53.504Z,8.68
2022-11-14T09:11:39.564Z,15.07
2022-11-14T09:14:25.226Z,11.25
2022-11-14T09:17:10.995Z,11.63
2022-11-14T09:19:56.755Z,6.63
2022-11-14T09:22:42.700Z,6.28
2022-11-14T09:25:30.008Z,10.98
2022-11-14T09:28:15.822Z,13.30
2022-11-14T09:31:06.943Z,12.50
2022-11-14T09:33:52.676Z,7.20
2022-11-14T09:36:38.689Z,8.02
2022-11-14T09:39:24.610Z,5.15
2022-11-14T09:42:22.932Z,3.42
2022-11-14T09:45:15.151Z,5.50
2022-11-14T09:48:09.762Z,10.63
2022-11-14T09:51:20.118Z,6.30
2022-11-14T09:54:16.672Z,8.15
2022-11-14T09:57:02.224Z,15.10
2022-11-14T09:59:48.415Z,4.40
2022-11-14T10:02:55.916Z,8.57
2022-11-14T10:06:05.688Z,4.13
2022-11-14T10:09:14.307Z,8.10
2022-11-14T10:12:11.723Z,5.18
2022-11-14T10:15:43.219Z,2.80
2022-11-14T10:18:44.043Z,4.03
2022-11-14T10:21:35.593Z,8.93
2022-11-14T10:24:49.114Z,3.20
2022-11-14T10:27:43.385Z,3.23
2022-11-14T10:30:39.047Z,2.53
2022-11-14T10:33:44.398Z,2.33
2022-11-14T10:36:59.930Z,4.07
2022-11-14T10:39:55.579Z,4.72
2022-11-14T10:42:49.828Z,4.03
2022-11-14T10:45:44.998Z,4.47
2022-11-14T10:48:43.182Z,6.43
2022-11-14T10:51:43.475Z,6.00
2022-11-14T10:55:06.787Z,9.07
2022-11-14T10:57:52.279Z,6.78
2022-11-14T11:00:37.844Z,14.45
2022-11-14T11:03:41.666Z,11.05
2022-11-14T11:06:29.338Z,8.18
2022-11-14T11:09:47.139Z,9.52
2022-11-14T11:13:05.535Z,6.70
2022-11-14T11:15:58.488Z,4.00
2022-11-14T11:18:47.332Z,7.75
2022-11-14T11:21:49.000Z,5.07
2022-11-14T11:24:37.707Z,3.67
2022-11-14T11:27:28.988Z,3.70
2022-11-14T11:30:25.667Z,4.63
2022-11-14T11:33:23.052Z,9.02
2022-11-14T11:36:25.200Z,8.10
2022-11-14T11:39:36.907Z,6.40
2022-11-14T11:43:06.193Z,8.75
2022-11-14T11:45:37.290Z,7.70
2022-11-14T11:48:26.592Z,7.70
2022-11-14T11:51:24.706Z,5.30
2022-11-14T11:54:13.215Z,5.75
2022-11-14T11:57:03.863Z,4.88
2022-11-14T11:59:55.862Z,5.65
2022-11-14T12:02:49.745Z,5.50
2022-11-14T12:05:50.532Z,6.10
2022-11-14T12:08:43.547Z,6.13
2022-11-14T12:11:33.657Z,7.05
2022-11-14T12:14:57.083Z,6.13
2022-11-14T12:17:59.353Z,7.07
2022-11-14T12:21:10.215Z,7.47
2022-11-14T12:24:22.617Z,3.95
2022-11-14T12:27:26.524Z,3.53
2022-11-14T12:30:22.978Z,5.28
2022-11-14T12:33:23.088Z,4.82
2022-11-14T12:36:11.519Z,8.77
2022-11-14T12:38:58.429Z,2.92
2022-11-14T12:41:44.085Z,6.75
2022-11-14T12:44:29.904Z,3.45
2022-11-14T12:47:21.876Z,6.25
2022-11-14T12:50:29.284Z,5.85
2022-11-14T12:53:36.346Z,4.57
2022-11-14T12:56:41.658Z,5.05
2022-11-14T12:59:49.531Z,7.25
2022-11-14T13:02:53.919Z,8.13
2022-11-14T13:06:04.623Z,5.88
2022-11-14T13:08:58.844Z,6.95
2022-11-14T13:12:07.433Z,6.72
2022-11-14T13:15:14.089Z,6.28
2022-11-14T13:18:36.579Z,7.75
2022-11-14T13:21:47.397Z,4.13
2022-11-14T13:24:54.671Z,4.22
2022-11-14T13:28:05.881Z,6.05
2022-11-14T13:31:16.741Z,5.47
2022-11-14T13:34:31.565Z,5.03
2022-11-14T13:37:39.666Z,4.18
2022-11-14T13:40:34.184Z,4.63
2022-11-14T13:43:38.269Z,5.97
2022-11-14T13:46:45.258Z,6.88
2022-11-14T13:50:11.481Z,5.22
2022-11-14T13:52:57.579Z,7.07
2022-11-14T13:56:09.366Z,6.68
2022-11-14T13:59:33.163Z,6.78
2022-11-14T14:02:43.167Z,5.32
2022-11-14T14:05:41.405Z,5.47
2022-11-14T14:08:26.896Z,9.57
2022-11-14T14:11:48.401Z,4.53
2022-11-14T14:15:01.437Z,4.35
2022-11-14T14:18:02.018Z,4.65
2022-11-14T14:20:54.252Z,8.95
2022-11-14T14:23:52.592Z,6.03
2022-11-14T14:27:01.756Z,4.63
2022-11-14T14:30:13.499Z,6.93
2022-11-14T14:33:08.272Z,8.73
2022-11-14T14:35:54.565Z,5.50
2022-11-14T14:38:40.115Z,8.77
2022-11-14T14:41:31.127Z,7.78
2022-11-14T14:44:23.643Z,6.65
2022-11-14T14:47:18.131Z,10.48
2022-11-14T14:50:23.810Z,3.90
2022-11-14T14:53:23.068Z,8.45
2022-11-14T14:56:19.586Z,10.90
2022-11-14T14:59:19.906Z,9.45
2022-11-14T15:02:15.117Z,8.95
2022-11-14T15:05:01.738Z,7.97
2022-11-14T15:07:49.658Z,12.50
2022-11-14T15:10:35.848Z,6.18
2022-11-14T15:13:25.307Z,7.68
2022-11-14T15:16:13.021Z,4.80
2022-11-14T15:19:00.036Z,7.13
2022-11-14T15:21:45.822Z,4.30
2022-11-14T15:24:32.135Z,6.85
2022-11-14T15:27:20.413Z,11.77
2022-11-14T15:30:19.452Z,7.03
2022-11-14T15:33:25.205Z,7.07
2022-11-14T15:36:18.035Z,5.63
2022-11-14T15:39:22.955Z,5.53
2022-11-14T15:42:26.833Z,7.43
2022-11-14T15:48:16.027Z,6.75
2022-11-14T15:51:01.928Z,4.03
2022-11-14T15:53:49.792Z,6.78
2022-11-14T15:56:35.597Z,7.20
2022-11-14T15:59:21.653Z,5.57
2022-11-14T16:02:15.285Z,6.28
2022-11-14T16:05:03.925Z,7.13
2022-11-14T16:07:49.615Z,9.63
2022-11-14T16:10:37.047Z,7.75
2022-11-14T16:13:23.059Z,11.20
2022-11-14T16:16:09.055Z,11.70
2022-11-14T16:18:54.623Z,12.43
2022-11-14T16:21:40.591Z,19.23
2022-11-14T16:24:31.122Z,17.50
2022-11-14T16:27:19.269Z,28.23
2022-11-14T16:30:05.562Z,23.42
2022-11-14T16:32:52.597Z,21.63
2022-11-14T16:35:38.644Z,15.02
2022-11-14T16:38:24.268Z,16.42
2022-11-14T16:41:13.603Z,13.05
2022-11-14T16:43:59.527Z,18.95
2022-11-14T16:46:46.496Z,17.20
2022-11-14T16:49:32.333Z,14.82
2022-11-14T16:52:19.346Z,10.23
2022-11-14T16:55:06.062Z,9.38
2022-11-14T16:57:52.006Z,10.20
2022-11-14T17:00:37.915Z,10.48
2022-11-14T17:03:23.755Z,19.10
2022-11-14T17:06:12.705Z,16.45
2022-11-14T17:09:00.099Z,17.27
2022-11-14T17:11:45.906Z,21.25
2022-11-14T17:14:31.880Z,23.98
2022-11-14T17:17:17.356Z,23.10
2022-11-14T17:20:03.441Z,23.50
2022-11-14T17:22:49.233Z,22.15
2022-11-14T17:25:35.245Z,15.02
2022-11-14T17:28:21.577Z,15.25
2022-11-14T17:31:08.814Z,15.70
2022-11-14T17:33:57.184Z,14.45
2022-11-14T17:36:42.723Z,11.50
2022-11-14T17:39:28.605Z,13.25
2022-11-14T17:42:14.385Z,14.30
2022-11-14T17:45:01.239Z,12.70
2022-11-14T17:47:47.107Z,11.68
2022-11-14T17:50:37.470Z,14.25
2022-11-14T17:53:23.536Z,16.38
2022-11-14T17:56:17.109Z,12.13
2022-11-14T17:59:02.659Z,12.85
2022-11-14T18:01:48.745Z,17.10
2022-11-14T18:04:34.298Z,13.43
2022-11-14T18:07:20.946Z,16.95
2022-11-14T18:10:07.091Z,15.35
2022-11-14T18:12:52.671Z,21.83
2022-11-14T18:15:39.368Z,24.75
2022-11-14T18:18:25.071Z,24.17
2022-11-14T18:21:14.848Z,24.25
2022-11-14T18:24:00.559Z,23.23
2022-11-14T18:26:46.057Z,23.58
2022-11-14T18:29:32.067Z,25.38
2022-11-14T18:32:18.495Z,33.97
2022-11-14T18:35:04.974Z,30.75
2022-11-14T18:37:50.655Z,28.65
2022-11-14T18:40:36.627Z,29.08
2022-11-14T18:43:22.253Z,27.50
2022-11-14T18:46:10.551Z,22.65
2022-11-14T18:48:57.614Z,22.02
2022-11-14T18:51:43.183Z,23.98
2022-11-14T18:54:28.883Z,24.40
2022-11-14T18:57:14.609Z,21.98
2022-11-14T19:00:00.564Z,19.77
2022-11-14T19:02:55.475Z,19.27
2022-11-14T19:05:41.147Z,25.30
2022-11-14T19:08:27.310Z,23.20
2022-11-14T19:11:34.599Z,29.77
2022-11-14T19:14:21.240Z,44.20
2022-11-14T19:17:07.335Z,33.03
2022-11-14T19:19:55.631Z,39.58
2022-11-14T19:22:41.262Z,39.10
2022-11-14T19:25:27.117Z,23.65
2022-11-14T19:28:13.398Z,23.92
2022-11-14T19:31:04.907Z,19.40
2022-11-14T19:33:50.576Z,20.58
2022-11-14T19:39:43.815Z,19.25
2022-11-14T19:42:30.833Z,16.13
2022-11-14T19:45:17.216Z,17.42
2022-11-14T19:48:03.744Z,17.58
2022-11-14T19:50:49.685Z,14.77
2022-11-14T19:53:36.658Z,17.60
2022-11-14T19:56:23.635Z,12.82
2022-11-14T19:59:13.942Z,16.90
2022-11-14T20:02:01.223Z,13.10
2022-11-14T20:04:50.438Z,17.02
2022-11-14T20:07:36.295Z,15.60
2022-11-14T20:10:22.204Z,15.20
2022-11-14T20:13:07.954Z,17.80
2022-11-14T20:15:53.898Z,17.95
2022-11-14T20:18:41.597Z,16.52
2022-11-14T20:21:30.408Z,19.23
2022-11-14T20:24:21.643Z,19.63
2022-11-14T20:27:07.449Z,24.00
2022-11-14T20:29:53.621Z,21.15
2022-11-14T20:32:39.112Z,20.58
2022-11-14T20:35:24.953Z,19.20
2022-11-14T20:38:10.912Z,20.75
2022-11-14T20:40:57.980Z,19.95
2022-11-14T20:43:44.106Z,18.98
2022-11-14T20:46:30.114Z,20.00
2022-11-14T20:49:16.270Z,17.33
2022-11-14T20:52:05.014Z,22.83
2022-11-14T20:54:50.948Z,21.30
2022-11-14T20:57:37.321Z,20.27
2022-11-14T21:00:23.369Z,21.25
2022-11-14T21:03:10.562Z,25.45
2022-11-14T21:05:56.920Z,22.77
2022-11-14T21:08:43.374Z,22.80
2022-11-14T21:11:29.420Z,18.95
2022-11-14T21:14:15.170Z,19.17
2022-11-14T21:17:00.969Z,20.83
2022-11-14T21:19:46.628Z,23.48
2022-11-14T21:22:32.513Z,21.70
2022-11-14T21:25:18.219Z,19.50
2022-11-14T21:28:04.119Z,23.25
2022-11-14T21:30:49.628Z,18.40
2022-11-14T21:33:35.414Z,13.90
2022-11-14T21:39:27.091Z,14.15
2022-11-14T21:42:18.084Z,14.63
2022-11-14T21:45:04.410Z,12.68
2022-11-14T21:47:50.226Z,14.07
2022-11-14T21:50:36.106Z,13.02
2022-11-14T21:53:21.857Z,10.95
2022-11-14T21:56:22.499Z,11.55
2022-11-14T21:59:21.530Z,12.77
2022-11-14T22:02:29.659Z,11.55
2022-11-14T22:05:15.363Z,14.48
2022-11-14T22:08:01.291Z,10.75
2022-11-14T22:10:46.965Z,8.70
2022-11-14T22:13:33.336Z,12.32
2022-11-14T22:16:19.862Z,10.23
2022-11-14T22:19:06.094Z,9.18
2022-11-14T22:21:51.844Z,11.45
2022-11-14T22:24:37.497Z,11.80
2022-11-14T22:27:23.180Z,10.32
2022-11-14T22:30:09.618Z,9.10
2022-11-14T22:32:54.981Z,9.63
2022-11-14T22:35:40.871Z,10.27
2022-11-14T22:38:29.721Z,8.73
2022-11-14T22:41:31.486Z,9.48
2022-11-14T22:44:18.079Z,10.05
2022-11-14T22:47:04.040Z,9.95
2022-11-14T22:49:49.852Z,13.15
2022-11-14T22:52:35.702Z,9.32
2022-11-14T22:55:21.474Z,10.95
2022-11-14T22:58:07.426Z,8.80
2022-11-14T23:00:53.523Z,9.05
2022-11-14T23:03:40.213Z,8.85
2022-11-14T23:06:26.575Z,8.25
2022-11-14T23:09:12.451Z,9.80
2022-11-14T23:11:57.888Z,9.93
2022-11-14T23:14:43.879Z,9.43
2022-11-14T23:17:29.576Z,9.57
2022-11-14T23:20:16.775Z,8.27
2022-11-14T23:23:02.907Z,8.00
2022-11-14T23:25:48.984Z,7.40
2022-11-14T23:28:35.034Z,9.27
2022-11-14T23:31:21.294Z,8.00
2022-11-14T23:34:06.791Z,9.10
2022-11-14T23:36:52.712Z,8.00
2022-11-14T23:39:38.504Z,6.63
2022-11-14T23:42:24.251Z,8.60
2022-11-14T23:45:10.181Z,5.03
2022-11-14T23:47:56.092Z,5.78
2022-11-14T23:50:42.807Z,6.05
2022-11-14T23:53:28.671Z,4.53
2022-11-14T23:56:15.158Z,5.35
2022-11-14T23:59:00.814Z,5.55
